createdAt,value
2019-03-25T00:00:08.926Z,5.23
2019-03-25T00:03:20.790Z,4.07
2019-03-25T00:06:18.344Z,3.80
2019-03-25T00:12:33.029Z,4.40
2019-03-25T00:15:47.407Z,3.63
2019-03-25T00:18:55.229Z,3.93
2019-03-25T00:22:12.009Z,4.53
2019-03-25T00:25:23.198Z,4.73
2019-03-25T00:28:07.248Z,4.83
2019-03-25T00:31:11.688Z,3.47
2019-03-25T00:34:14.599Z,4.10
2019-03-25T00:41:17.982Z,4.87
2019-03-25T00:47:39.570Z,4.10
2019-03-25T00:54:17.422Z,4.60
2019-03-25T01:00:35.827Z,4.93
2019-03-25T01:03:48.737Z,4.87
2019-03-25T01:07:09.030Z,4.80
2019-03-25T01:10:09.525Z,3.80
2019-03-25T01:13:18.234Z,5.50
2019-03-25T01:16:19.848Z,4.63
2019-03-25T01:19:41.999Z,4.77
2019-03-25T01:26:31.262Z,5.00
2019-03-25T01:29:44.724Z,4.87
2019-03-25T01:33:10.427Z,4.80
2019-03-25T01:36:33.729Z,5.00
2019-03-25T01:43:27.923Z,4.97
2019-03-25T01:49:49.050Z,4.10
2019-03-25T01:52:50.552Z,5.20
2019-03-25T01:55:33.595Z,5.03
2019-03-25T01:58:33.428Z,5.47
2019-03-25T02:01:49.952Z,4.70
2019-03-25T02:05:02.746Z,5.43
2019-03-25T02:07:57.299Z,4.73
2019-03-25T02:14:08.468Z,5.30
2019-03-25T02:17:44.362Z,4.67
2019-03-25T02:21:02.644Z,5.30
2019-03-25T02:23:59.390Z,4.63
2019-03-25T02:27:21.654Z,5.73
2019-03-25T02:29:56.908Z,5.07
2019-03-25T02:32:59.826Z,6.10
2019-03-25T02:36:02.749Z,5.90
2019-03-25T02:39:09.124Z,5.77
2019-03-25T02:42:13.334Z,6.27
2019-03-25T02:45:34.627Z,6.67
2019-03-25T02:52:57.388Z,8.33
2019-03-25T02:56:17.932Z,6.17
2019-03-25T03:09:43.906Z,7.07
2019-03-25T03:12:42.644Z,8.03
2019-03-25T03:19:36.850Z,6.77
2019-03-25T03:22:46.099Z,8.33
2019-03-25T03:26:22.144Z,7.23
2019-03-25T03:32:59.802Z,8.50
2019-03-25T03:39:53.837Z,10.20
2019-03-25T03:42:52.213Z,10.37
2019-03-25T03:46:25.329Z,6.27
2019-03-25T03:52:59.969Z,6.80
2019-03-25T04:02:42.312Z,4.90
2019-03-25T04:05:56.790Z,4.13
2019-03-25T04:09:03.825Z,3.20
2019-03-25T04:12:23.964Z,3.63
2019-03-25T04:15:21.406Z,3.50
2019-03-25T04:18:37.805Z,3.77
2019-03-25T04:21:55.675Z,3.57
2019-03-25T04:25:15.081Z,3.40
2019-03-25T04:31:32.136Z,3.83
2019-03-25T04:37:49.123Z,4.43
2019-03-25T04:41:12.839Z,3.20
2019-03-25T04:48:20.720Z,2.50
2019-03-25T04:55:03.909Z,2.20
2019-03-25T04:58:27.560Z,2.40
2019-03-25T05:01:48.029Z,2.50
2019-03-25T05:05:11.730Z,2.33
2019-03-25T05:08:53.653Z,2.20
2019-03-25T05:11:48.275Z,2.30
2019-03-25T05:15:19.695Z,2.00
2019-03-25T05:22:21.982Z,2.63
2019-03-25T05:25:35.389Z,2.70
2019-03-25T05:28:42.074Z,3.27
2019-03-25T05:32:00.843Z,2.83
2019-03-25T05:35:25.213Z,2.63
2019-03-25T05:38:37.026Z,3.00
2019-03-25T05:44:51.779Z,2.90
2019-03-25T05:48:18.879Z,3.33
2019-03-25T05:54:40.379Z,3.33
2019-03-25T05:58:13.086Z,3.07
2019-03-25T06:04:55.711Z,3.10
2019-03-25T06:08:21.209Z,2.67
2019-03-25T06:11:40.558Z,2.10
2019-03-25T06:18:06.128Z,2.47
2019-03-25T06:21:13.275Z,2.47
2019-03-25T06:24:28.355Z,2.30
2019-03-25T06:28:02.675Z,2.33
2019-03-25T06:31:10.395Z,2.20
2019-03-25T06:34:41.656Z,1.70
2019-03-25T06:37:42.720Z,1.73
2019-03-25T06:40:55.549Z,2.70
2019-03-25T06:43:55.935Z,2.33
2019-03-25T06:50:45.160Z,2.27
2019-03-25T06:53:46.706Z,2.20
2019-03-25T06:56:59.730Z,2.07
2019-03-25T07:11:40.126Z,2.77
2019-03-25T07:14:37.825Z,2.03
2019-03-25T07:17:42.675Z,2.53
2019-03-25T07:27:46.186Z,2.87
2019-03-25T07:30:57.802Z,2.73
2019-03-25T07:34:32.932Z,2.93
2019-03-25T07:41:21.572Z,2.43
2019-03-25T07:44:58.361Z,2.93
2019-03-25T07:47:42.566Z,2.50
2019-03-25T07:50:53.965Z,2.20
2019-03-25T07:54:21.712Z,2.47
2019-03-25T07:57:26.136Z,2.30
2019-03-25T08:00:28.111Z,3.13
2019-03-25T08:03:43.582Z,3.03
2019-03-25T08:07:04.739Z,1.93
2019-03-25T08:09:55.903Z,2.17
2019-03-25T08:16:37.121Z,2.13
2019-03-25T08:23:52.186Z,1.60
2019-03-25T08:30:40.407Z,1.87
2019-03-25T08:34:02.266Z,1.83
2019-03-25T08:36:57.842Z,1.33
2019-03-25T08:40:31.600Z,1.20
2019-03-25T08:49:47.795Z,2.47
2019-03-25T08:52:39.573Z,2.40
2019-03-25T08:55:57.873Z,1.80
2019-03-25T09:02:47.901Z,1.90
2019-03-25T09:08:41.743Z,1.53
2019-03-25T09:15:34.253Z,1.80
2019-03-25T09:19:08.365Z,1.27
2019-03-25T09:22:33.475Z,2.27
2019-03-25T09:29:51.432Z,1.27
2019-03-25T09:40:03.460Z,1.97
2019-03-25T09:43:11.771Z,1.00
2019-03-25T09:49:36.082Z,1.33
2019-03-25T09:53:01.943Z,1.77
2019-03-25T09:56:39.299Z,1.57
2019-03-25T10:06:43.650Z,1.57
2019-03-25T10:10:19.957Z,1.50
2019-03-25T10:13:22.209Z,1.53
2019-03-25T10:16:11.610Z,1.60
2019-03-25T10:19:23.878Z,2.40
2019-03-25T10:22:49.813Z,1.83
2019-03-25T10:29:24.498Z,1.17
2019-03-25T10:33:05.806Z,2.20
2019-03-25T10:36:04.119Z,1.37
2019-03-25T10:43:01.463Z,1.30
2019-03-25T10:46:26.906Z,1.87
2019-03-25T10:49:59.496Z,0.77
2019-03-25T10:53:21.556Z,1.97
2019-03-25T11:04:08.341Z,1.27
2019-03-25T11:14:32.826Z,1.93
2019-03-25T11:21:32.612Z,1.03
2019-03-25T11:24:38.560Z,0.80
2019-03-25T11:28:13.147Z,1.17
2019-03-25T11:31:23.575Z,1.70
2019-03-25T11:34:25.407Z,1.67
2019-03-25T11:37:36.160Z,1.40
2019-03-25T11:41:16.079Z,1.13
2019-03-25T11:51:24.063Z,1.40
2019-03-25T11:55:21.393Z,1.10
2019-03-25T12:09:49.311Z,5.13
2019-03-25T12:16:32.585Z,1.30
2019-03-25T12:23:48.492Z,1.40
2019-03-25T12:27:12.440Z,1.67
2019-03-25T12:30:06.701Z,2.30
2019-03-25T12:33:43.434Z,1.10
2019-03-25T12:36:42.636Z,1.00
2019-03-25T12:39:40.550Z,1.43
2019-03-25T12:46:31.244Z,1.70
2019-03-25T12:49:52.355Z,1.10
2019-03-25T12:53:23.694Z,1.30
2019-03-25T13:00:40.862Z,1.23
2019-03-25T13:05:05.686Z,1.50
2019-03-25T13:07:46.470Z,2.27
2019-03-25T13:18:38.748Z,1.50
2019-03-25T13:21:44.437Z,1.20
2019-03-25T13:25:16.614Z,1.50
2019-03-25T13:28:31.528Z,1.13
2019-03-25T13:31:58.001Z,1.33
2019-03-25T13:38:39.607Z,2.30
2019-03-25T13:41:47.221Z,2.77
2019-03-25T13:48:29.564Z,0.90
2019-03-25T13:51:31.063Z,0.40
2019-03-25T13:54:54.994Z,0.40
2019-03-25T14:01:30.423Z,0.63
2019-03-25T14:08:13.925Z,0.67
2019-03-25T14:11:14.652Z,0.50
2019-03-25T14:14:31.595Z,0.40
2019-03-25T14:21:41.222Z,0.70
2019-03-25T14:25:28.724Z,1.20
2019-03-25T14:32:50.817Z,2.77
2019-03-25T14:35:56.320Z,5.47
2019-03-25T14:38:50.822Z,5.00
2019-03-25T14:41:40.325Z,3.00
2019-03-25T14:44:36.625Z,2.23
2019-03-25T14:47:50.090Z,1.20
2019-03-25T14:54:06.744Z,0.97
2019-03-25T14:56:56.895Z,0.97
2019-03-25T15:00:07.620Z,0.60
2019-03-25T15:03:09.644Z,0.80
2019-03-25T15:10:13.262Z,0.63
2019-03-25T15:13:18.049Z,0.50
2019-03-25T15:16:32.404Z,1.07
2019-03-25T15:19:36.326Z,0.70
2019-03-25T15:26:29.877Z,1.20
2019-03-25T15:47:48.908Z,1.47
2019-03-25T15:50:54.802Z,1.03
2019-03-25T15:54:16.248Z,1.87
2019-03-25T15:57:35.705Z,1.77
2019-03-25T16:00:47.765Z,2.03
2019-03-25T16:03:56.202Z,2.20
2019-03-25T16:07:21.293Z,2.20
2019-03-25T16:13:26.388Z,2.40
2019-03-25T16:16:45.785Z,2.47
2019-03-25T16:19:50.597Z,2.90
2019-03-25T16:26:22.584Z,2.33
2019-03-25T16:33:17.380Z,4.37
2019-03-25T16:36:18.898Z,2.67
2019-03-25T16:39:27.277Z,2.43
2019-03-25T16:42:20.867Z,3.37
2019-03-25T16:45:39.085Z,2.80
2019-03-25T16:49:10.724Z,3.00
2019-03-25T16:52:24.525Z,3.10
2019-03-25T16:55:41.128Z,2.40
2019-03-25T16:58:55.437Z,4.03
2019-03-25T17:05:32.513Z,2.50
2019-03-25T17:12:05.750Z,2.17
2019-03-25T17:15:00.579Z,2.87
2019-03-25T17:18:36.138Z,5.60
2019-03-25T17:25:10.674Z,1.40
2019-03-25T17:28:32.090Z,1.73
2019-03-25T17:31:32.743Z,1.90
2019-03-25T17:34:46.057Z,3.00
2019-03-25T17:45:10.343Z,2.63
2019-03-25T17:47:56.154Z,4.03
2019-03-25T17:50:54.742Z,3.33
2019-03-25T17:54:30.054Z,2.10
2019-03-25T17:57:30.733Z,2.07
2019-03-25T18:00:58.580Z,2.17
2019-03-25T18:05:02.057Z,1.90
2019-03-25T18:07:35.606Z,1.90
2019-03-25T18:10:44.418Z,2.50
2019-03-25T18:14:22.564Z,3.60
2019-03-25T18:17:54.963Z,2.20
2019-03-25T18:21:16.640Z,2.13
2019-03-25T18:24:12.184Z,2.97
2019-03-25T18:27:16.468Z,2.70
2019-03-25T18:30:41.940Z,2.63
2019-03-25T18:33:47.532Z,1.90
2019-03-25T18:40:29.863Z,3.47
2019-03-25T18:43:39.426Z,2.63
2019-03-25T18:46:38.386Z,2.03
2019-03-25T18:50:24.939Z,2.40
2019-03-25T18:53:56.361Z,2.30
2019-03-25T18:57:14.639Z,2.87
2019-03-25T19:00:19.663Z,3.43
2019-03-25T19:09:48.928Z,3.23
2019-03-25T19:13:01.979Z,2.40
2019-03-25T19:16:30.998Z,12.70
2019-03-25T19:19:49.495Z,6.30
2019-03-25T19:22:57.217Z,14.20
2019-03-25T19:26:13.670Z,3.40
2019-03-25T19:29:35.827Z,7.10
2019-03-25T19:36:21.395Z,4.77
2019-03-25T19:39:30.145Z,3.17
2019-03-25T19:43:08.375Z,6.83
2019-03-25T19:46:31.177Z,3.13
2019-03-25T19:49:58.315Z,2.73
2019-03-25T20:00:06.493Z,3.37
2019-03-25T20:03:08.954Z,4.20
2019-03-25T20:06:26.715Z,2.87
2019-03-25T20:09:52.994Z,3.57
2019-03-25T20:12:51.530Z,2.77
2019-03-25T20:19:32.080Z,3.73
2019-03-25T20:26:08.414Z,4.80
2019-03-25T20:32:32.286Z,4.07
2019-03-25T20:35:49.858Z,4.00
2019-03-25T20:38:49.445Z,3.40
2019-03-25T20:41:49.934Z,3.30
2019-03-25T20:45:01.137Z,4.03
2019-03-25T20:48:23.861Z,4.13
2019-03-25T20:54:53.435Z,4.47
2019-03-25T21:01:56.013Z,4.80
2019-03-25T21:04:53.516Z,7.30
2019-03-25T21:07:51.753Z,5.43
2019-03-25T21:14:36.574Z,5.53
2019-03-25T21:24:45.550Z,6.67
2019-03-25T21:27:53.607Z,7.23
2019-03-25T21:31:15.463Z,7.70
2019-03-25T21:34:12.305Z,8.00
2019-03-25T21:37:45.789Z,7.73
2019-03-25T21:40:46.888Z,8.23
2019-03-25T21:44:00.458Z,9.37
2019-03-25T21:47:20.610Z,10.13
2019-03-25T21:53:35.212Z,10.80
2019-03-25T21:57:04.575Z,9.33
2019-03-25T22:00:35.381Z,8.87
2019-03-25T22:03:54.795Z,10.07
2019-03-25T22:10:35.260Z,10.10
2019-03-25T22:16:58.116Z,10.37
2019-03-25T22:19:55.682Z,10.53
2019-03-25T22:22:43.791Z,11.03
2019-03-25T22:26:16.970Z,10.87
2019-03-25T22:29:44.979Z,9.57
2019-03-25T22:40:01.781Z,9.60
2019-03-25T22:46:24.191Z,12.30
2019-03-25T22:49:45.460Z,12.23
2019-03-25T22:52:32.383Z,10.87
2019-03-25T22:55:59.634Z,11.43
2019-03-25T22:59:18.179Z,10.77
2019-03-25T23:06:17.080Z,10.00
2019-03-25T23:09:33.453Z,9.93
2019-03-25T23:13:06.889Z,9.30
2019-03-25T23:16:15.886Z,10.37
2019-03-25T23:19:17.179Z,10.50
2019-03-25T23:23:05.225Z,8.90
2019-03-25T23:26:00.410Z,9.83
2019-03-25T23:29:18.040Z,9.73
2019-03-25T23:32:37.411Z,10.03
2019-03-25T23:35:49.744Z,8.80
2019-03-25T23:39:02.960Z,9.17
2019-03-25T23:41:47.544Z,6.43
2019-03-25T23:48:44.811Z,9.60
2019-03-25T23:52:02.360Z,6.73
